Jupiter, FL (33458)

6:33 PM EDT on October 22, 2014 (GMT -0400)
JUPITER RIVER | Change Station
CLOSE
Current Station
Personal Weather Station
Location: Jupiter, FL
Elevation: 33 ft
Nearby Weather Stations

Elev 33 ft 26.93 °N, 80.11 °W | Updated 0 second ago

Mostly Cloudy
Mostly Cloudy
79.9 °F
Feels Like 84 °F
N
0.0
Wind Variable Wind from NNE
Gusts 0.0 mph

Today
High -- | Low -- °F
--% Chance of Precip.
Yesterday
High -- | Low -- °F
Precip. -- in
7:24 AM 6:45 PM
Waning Crescent, 1% visible
Pressure 29.91 in
Visibility 10.0 miles
Clouds Few 3000 ft
Mostly Cloudy 12000 ft
Mostly Cloudy 20000 ft
Heat Index 84 °F
Dew Point 72 °F
Humidity 78%
Rainfall 0.00 in
Snow Depth Not available.
UV 0 out of 12
Pollen 3.40 out of 12
Ozone Good
PM2.5 Good
Flu Activity Local Activity
METAR KPBI 222153Z 06006KT 10SM FEW030 BKN120 BKN200 27/21 A2991 RMK AO2 SLP126 T02720211

More Conditions Fewer Conditions

Pressure 29.91 in
Visibility 10.0 miles
Clouds Few 3000 ft
Mostly Cloudy 12000 ft
Mostly Cloudy 20000 ft
Heat Index 84 °F
Dew Point 72 °F
Humidity 78%
Rainfall 0.00 in
Snow Depth Not available.
UV 0 out of 12
Pollen 3.40 out of 12
Ozone Good
PM2.5 Good
Flu Activity Local Activity
METAR KPBI 222153Z 06006KT 10SM FEW030 BKN120 BKN200 27/21 A2991 RMK AO2 SLP126 T02720211

More Conditions Fewer Conditions

Nowcast | as of 5:53 PM EDT on October 22, 2014

Areas of light to moderate rain will continue over southern portions of the peninsula this evening, mainly across Miami-Dade and Mainland Monroe counties as well as southern portions of Collier and Broward counties. Across Palm Beach and Hendry counties, only isolated showers are expected this evening.

×

10-Day Weather Forecast

Almanac

Astronomy

Oct. 22, 2014 Rise Set
Actual Time 7:24 AM EDT 6:45 PM EDT
Civil Twilight 7:00 AM EDT 7:09 PM EDT
Nautical Twilight 6:33 AM EDT 7:36 PM EDT
Astronomical Twilight 6:06 AM EDT 8:03 PM EDT
Moon 6:10 AM EDT 6:06 PM EDT
Length of Visible Light 12h 08m
Length of Day
11h 21m
Tomorrow will be 1m 29s shorter.
Waning Crescent, 1% of the Moon is Illuminated
Today
Waning Crescent
Oct 23
New
Oct 30
First Quarter
Nov 6
Full
Nov 14
Last Quarter

Today's Extremes

State Highs State Lows

Community

WunderPhotos

Upload Photos

1,764,065 photos uploaded!

WunderBlogs® & News

Nearby

Air Quality

  Air Quality AQ Index Pollutant
Yesterday Good
PM2.5
Yesterday Good
OZONE
Current Good
OZONE
Current Good
PM2.5
Wednesday Good
OZONE
Wednesday Good
PM2.5
Thursday Good
OZONE
Thursday Good
PM2.5
Friday Good
OZONE
Friday Good
PM2.5

Snow Depth

Station Depth Elevation
No new snow has been reported.

Earthquake Activity

City Distance Mag. Time & Date
No recent earthquake activity has been reported nearby.
Minimum magnitude displayed is 2.5.

Coastal Water Temperatures

Place Temperature
Lake Worth, FL 82.9 °F
Virginia Key, FL 81.0 °F

Nearby Weather Stations